createdAt,value
2018-05-17T00:01:49.560Z,0.00
2018-05-17T00:02:49.581Z,0.00
2018-05-17T00:04:42.503Z,0.00
2018-05-17T00:05:42.504Z,0.00
2018-05-17T00:07:35.415Z,0.00
2018-05-17T00:08:35.431Z,0.00
2018-05-17T00:10:28.360Z,0.00
2018-05-17T00:11:28.355Z,0.00
2018-05-17T00:13:21.257Z,0.00
2018-05-17T00:14:21.276Z,0.00
2018-05-17T00:16:14.199Z,0.00
2018-05-17T00:17:14.201Z,0.00
2018-05-17T00:19:07.121Z,0.00
2018-05-17T00:20:07.120Z,0.00
2018-05-17T00:22:00.025Z,0.00
2018-05-17T00:23:00.043Z,0.00
2018-05-17T00:24:52.965Z,0.00
2018-05-17T00:25:52.966Z,0.00
2018-05-17T00:27:45.869Z,0.00
2018-05-17T00:28:45.888Z,0.00
2018-05-17T00:30:39.813Z,0.00
2018-05-17T00:31:39.809Z,0.00
2018-05-17T00:33:32.711Z,0.00
2018-05-17T00:34:32.729Z,0.00
2018-05-17T00:36:25.659Z,0.00
2018-05-17T00:37:25.657Z,0.00
2018-05-17T00:39:18.585Z,0.00
2018-05-17T00:40:18.578Z,0.00
2018-05-17T00:42:11.478Z,0.00
2018-05-17T00:43:11.499Z,0.00
2018-05-17T00:45:04.419Z,0.00
2018-05-17T00:46:04.418Z,0.00
2018-05-17T00:47:57.316Z,0.00
2018-05-17T00:48:57.337Z,0.00
2018-05-17T00:50:50.262Z,0.00
2018-05-17T00:51:50.261Z,0.00
2018-05-17T00:53:43.165Z,0.00
2018-05-17T00:54:43.183Z,0.00
2018-05-17T00:56:36.100Z,0.00
2018-05-17T00:57:36.102Z,0.00
2018-05-17T00:59:29.025Z,0.00
2018-05-17T01:00:29.023Z,0.00
2018-05-17T01:02:21.925Z,0.00
2018-05-17T01:03:21.944Z,0.00
2018-05-17T01:05:14.868Z,0.00
2018-05-17T01:06:14.864Z,0.00
2018-05-17T01:08:07.768Z,0.00
2018-05-17T01:09:07.784Z,0.00
2018-05-17T01:11:00.710Z,0.00
2018-05-17T01:12:00.704Z,0.00
2018-05-17T01:13:53.611Z,0.00
2018-05-17T01:14:53.629Z,0.00
2018-05-17T01:16:46.550Z,0.00
2018-05-17T01:17:46.548Z,0.00
2018-05-17T01:19:39.469Z,0.00
2018-05-17T01:20:39.466Z,0.00
2018-05-17T01:22:32.374Z,0.00
2018-05-17T01:23:32.393Z,0.00
2018-05-17T01:25:25.314Z,0.00
2018-05-17T01:26:25.310Z,0.00
2018-05-17T01:28:18.213Z,0.00
2018-05-17T01:29:18.231Z,0.00
2018-05-17T01:31:11.157Z,0.00
2018-05-17T01:32:11.159Z,0.00
2018-05-17T01:34:04.223Z,0.00
2018-05-17T01:35:04.319Z,0.00
2018-05-17T01:36:57.163Z,0.00
2018-05-17T01:37:57.160Z,0.00
2018-05-17T01:39:50.081Z,0.00
2018-05-17T01:40:50.079Z,0.00
2018-05-17T01:42:42.983Z,0.00
2018-05-17T01:43:42.999Z,0.00
2018-05-17T01:45:35.922Z,0.00
2018-05-17T01:46:35.926Z,0.00
2018-05-17T01:48:28.821Z,0.00
2018-05-17T01:49:28.839Z,0.00
2018-05-17T01:51:21.762Z,0.00
2018-05-17T01:52:21.761Z,0.00
2018-05-17T01:54:14.666Z,0.00
2018-05-17T01:55:14.684Z,0.00
2018-05-17T01:57:07.605Z,0.00
2018-05-17T01:58:07.605Z,0.00
2018-05-17T02:00:00.526Z,0.00
2018-05-17T02:01:00.523Z,0.00
2018-05-17T02:02:53.428Z,0.00
2018-05-17T02:03:53.444Z,0.00
2018-05-17T02:05:46.366Z,0.00
2018-05-17T02:06:46.366Z,0.00
2018-05-17T02:08:39.265Z,0.00
2018-05-17T02:09:39.283Z,0.00
2018-05-17T02:11:32.267Z,0.00
2018-05-17T02:12:32.206Z,0.00
2018-05-17T02:14:25.108Z,0.00
2018-05-17T02:15:25.124Z,0.00
2018-05-17T02:17:18.048Z,0.00
2018-05-17T02:18:18.051Z,0.00
2018-05-17T02:20:10.969Z,0.00
2018-05-17T02:21:10.970Z,0.00
2018-05-17T02:23:03.869Z,0.00
2018-05-17T02:24:03.885Z,0.00
2018-05-17T02:25:56.810Z,0.00
2018-05-17T02:26:56.808Z,0.00
2018-05-17T02:28:49.709Z,0.00
2018-05-17T02:29:49.726Z,0.00
2018-05-17T02:31:42.650Z,0.00
2018-05-17T02:32:42.656Z,0.00
2018-05-17T02:34:35.551Z,0.00
2018-05-17T02:35:35.568Z,0.00
2018-05-17T02:37:28.492Z,0.00
2018-05-17T02:38:28.489Z,0.00
2018-05-17T02:40:21.410Z,0.00
2018-05-17T02:41:21.409Z,0.00
2018-05-17T02:43:14.310Z,0.00
2018-05-17T02:44:14.327Z,0.00
2018-05-17T02:46:07.249Z,0.00
2018-05-17T02:47:07.245Z,0.00
2018-05-17T02:49:00.256Z,0.00
2018-05-17T02:50:00.181Z,0.00
2018-05-17T02:51:53.090Z,0.00
2018-05-17T02:52:53.087Z,4.00
2018-05-17T02:54:45.988Z,4.00
2018-05-17T02:55:46.008Z,0.00
2018-05-17T02:57:38.930Z,4.00
2018-05-17T02:58:38.928Z,4.00
2018-05-17T03:00:31.851Z,4.00
2018-05-17T03:01:31.850Z,8.00
2018-05-17T03:03:24.749Z,8.00
2018-05-17T03:04:24.768Z,8.00
2018-05-17T03:06:17.687Z,8.00
2018-05-17T03:07:17.689Z,12.00
2018-05-17T03:09:10.711Z,16.00
2018-05-17T03:10:10.732Z,16.00
2018-05-17T03:12:03.654Z,20.00
2018-05-17T03:13:03.653Z,24.00
2018-05-17T03:14:56.558Z,32.00
2018-05-17T03:15:56.577Z,36.00
2018-05-17T03:17:49.499Z,44.00
2018-05-17T03:18:49.498Z,48.00
2018-05-17T03:20:42.422Z,60.00
2018-05-17T03:21:42.416Z,60.00
2018-05-17T03:23:35.317Z,76.00
2018-05-17T03:24:35.339Z,84.00
2018-05-17T03:26:28.257Z,100.00
2018-05-17T03:27:28.254Z,112.00
2018-05-17T03:29:21.157Z,124.00
2018-05-17T03:30:21.175Z,132.00
2018-05-17T03:32:14.097Z,160.00
2018-05-17T03:33:14.094Z,184.00
2018-05-17T03:35:06.995Z,216.00
2018-05-17T03:36:07.014Z,228.00
2018-05-17T03:37:59.937Z,272.00
2018-05-17T03:38:59.934Z,328.00
2018-05-17T03:40:52.857Z,376.00
2018-05-17T03:41:52.853Z,392.00
2018-05-17T03:43:45.756Z,340.00
2018-05-17T03:44:45.780Z,412.00
2018-05-17T03:46:38.694Z,436.00
2018-05-17T03:47:38.695Z,420.00
2018-05-17T03:49:31.596Z,448.00
2018-05-17T03:50:31.613Z,472.00
2018-05-17T03:52:24.538Z,504.00
2018-05-17T03:53:24.535Z,544.00
2018-05-17T03:55:17.434Z,584.00
2018-05-17T03:56:17.457Z,620.00
2018-05-17T03:58:10.375Z,632.00
2018-05-17T03:59:10.377Z,632.00
2018-05-17T04:01:03.297Z,680.00
2018-05-17T04:02:03.294Z,724.00
2018-05-17T04:03:56.204Z,716.00
2018-05-17T04:04:56.226Z,760.00
2018-05-17T04:06:49.136Z,832.00
2018-05-17T04:07:49.133Z,840.00
2018-05-17T04:09:42.034Z,900.00
2018-05-17T04:10:42.052Z,948.00
2018-05-17T04:12:34.972Z,896.00
2018-05-17T04:13:34.969Z,896.00
2018-05-17T04:15:27.874Z,924.00
2018-05-17T04:16:27.894Z,916.00
2018-05-17T04:18:20.815Z,956.00
2018-05-17T04:19:20.812Z,932.00
2018-05-17T04:21:13.733Z,964.00
2018-05-17T04:22:13.731Z,1004.00
2018-05-17T04:24:06.635Z,1040.00
2018-05-17T04:25:06.649Z,1132.00
2018-05-17T04:26:59.573Z,1264.00
2018-05-17T04:27:59.568Z,1332.00
2018-05-17T04:29:52.470Z,1360.00
2018-05-17T04:30:52.487Z,1384.00
2018-05-17T04:32:45.415Z,1360.00
2018-05-17T04:33:45.410Z,1376.00
2018-05-17T04:35:38.310Z,1584.00
2018-05-17T04:36:38.328Z,1644.00
2018-05-17T04:38:31.253Z,1792.00
2018-05-17T04:39:31.252Z,1744.00
2018-05-17T04:41:24.178Z,1860.00
2018-05-17T04:42:24.172Z,1924.00
2018-05-17T04:44:17.084Z,1796.00
2018-05-17T04:45:17.091Z,1772.00
2018-05-17T04:47:10.084Z,1856.00
2018-05-17T04:48:10.012Z,1916.00
2018-05-17T04:50:02.916Z,1864.00
2018-05-17T04:51:02.933Z,1836.00
2018-05-17T04:52:55.857Z,1872.00
2018-05-17T04:53:55.850Z,1848.00
2018-05-17T04:55:48.754Z,2076.00
2018-05-17T04:56:48.774Z,2244.00
2018-05-17T04:58:41.695Z,2400.00
2018-05-17T04:59:41.694Z,2380.00
2018-05-17T05:01:34.621Z,3032.00
2018-05-17T05:02:34.615Z,3184.00
2018-05-17T05:04:27.515Z,3164.00
2018-05-17T05:05:27.535Z,2952.00
2018-05-17T05:07:20.457Z,3192.00
2018-05-17T05:08:20.456Z,3312.00
2018-05-17T05:10:13.357Z,3596.00
2018-05-17T05:11:13.373Z,3728.00
2018-05-17T05:13:06.297Z,3984.00
2018-05-17T05:14:06.296Z,4288.00
2018-05-17T05:15:59.196Z,3916.00
2018-05-17T05:16:59.215Z,3892.00
2018-05-17T05:18:52.138Z,4100.00
2018-05-17T05:19:52.134Z,4388.00
2018-05-17T05:21:45.059Z,3976.00
2018-05-17T05:22:45.057Z,3908.00
2018-05-17T05:24:37.959Z,3840.00
2018-05-17T05:25:37.978Z,3924.00
2018-05-17T05:27:30.904Z,3660.00
2018-05-17T05:28:30.900Z,3968.00
2018-05-17T05:30:23.805Z,4864.00
2018-05-17T05:31:23.823Z,6056.00
2018-05-17T05:33:16.748Z,7336.00
2018-05-17T05:34:16.746Z,6860.00
2018-05-17T05:36:09.648Z,7288.00
2018-05-17T05:37:09.668Z,8204.00
2018-05-17T05:39:02.594Z,6952.00
2018-05-17T05:40:02.592Z,6960.00
2018-05-17T05:41:55.529Z,8124.00
2018-05-17T05:42:55.515Z,7464.00
2018-05-17T05:44:48.425Z,6712.00
2018-05-17T05:45:48.442Z,6828.00
2018-05-17T05:47:41.367Z,6304.00
2018-05-17T05:48:41.368Z,6364.00
2018-05-17T05:50:34.271Z,6072.00
2018-05-17T05:51:34.288Z,5264.00
2018-05-17T05:53:27.217Z,5984.00
2018-05-17T05:54:27.216Z,5632.00
2018-05-17T05:56:20.122Z,5816.00
2018-05-17T05:57:20.142Z,5504.00
2018-05-17T05:59:13.079Z,5980.00
2018-05-17T06:00:13.079Z,6496.00
2018-05-17T06:02:05.981Z,6272.00
2018-05-17T06:03:06.039Z,6448.00
2018-05-17T06:04:58.936Z,7592.00
2018-05-17T06:05:58.937Z,7840.00
2018-05-17T06:07:51.855Z,7932.00
2018-05-17T06:08:51.854Z,7984.00
2018-05-17T06:10:44.759Z,8376.00
2018-05-17T06:11:44.780Z,7860.00
2018-05-17T06:13:37.710Z,9456.00
2018-05-17T06:14:37.706Z,8724.00
2018-05-17T06:16:30.621Z,8856.00
2018-05-17T06:17:30.700Z,8656.00
2018-05-17T06:19:23.557Z,7332.00
2018-05-17T06:20:23.556Z,7468.00
2018-05-17T06:22:16.465Z,8348.00
2018-05-17T06:23:16.481Z,8620.00
2018-05-17T06:25:09.411Z,9692.00
2018-05-17T06:26:09.411Z,9400.00
2018-05-17T06:28:02.348Z,8344.00
2018-05-17T06:29:02.340Z,8044.00
2018-05-17T06:30:55.247Z,7800.00
2018-05-17T06:31:55.274Z,7264.00
2018-05-17T06:33:48.194Z,7256.00
2018-05-17T06:34:48.194Z,7372.00
2018-05-17T06:36:41.103Z,7308.00
2018-05-17T06:37:41.152Z,7556.00
2018-05-17T06:39:34.053Z,8112.00
2018-05-17T06:40:34.054Z,9640.00
2018-05-17T06:42:26.958Z,10468.00
2018-05-17T06:43:26.977Z,11604.00
2018-05-17T06:45:19.907Z,16040.00
2018-05-17T06:46:19.906Z,12272.00
2018-05-17T06:48:12.832Z,11772.00
2018-05-17T06:49:12.833Z,11396.00
2018-05-17T06:51:05.740Z,10888.00
2018-05-17T06:52:05.761Z,11968.00
2018-05-17T06:53:58.798Z,10652.00
2018-05-17T06:54:58.726Z,11728.00
2018-05-17T06:56:51.637Z,15348.00
2018-05-17T06:57:51.654Z,32096.00
2018-05-17T06:59:45.077Z,14412.00
2018-05-17T07:00:45.083Z,12740.00
2018-05-17T07:02:37.993Z,12272.00
2018-05-17T07:03:38.012Z,12792.00
2018-05-17T07:05:30.945Z,12112.00
2018-05-17T07:06:30.947Z,13808.00
2018-05-17T07:08:24.374Z,12624.00
2018-05-17T07:09:24.381Z,13628.00
2018-05-17T07:11:17.286Z,14420.00
2018-05-17T07:12:17.310Z,13916.00
2018-05-17T07:14:10.240Z,13012.00
2018-05-17T07:15:10.246Z,13316.00
2018-05-17T07:17:03.652Z,15012.00
2018-05-17T07:18:03.855Z,14968.00
2018-05-17T07:19:56.603Z,11856.00
2018-05-17T07:20:56.605Z,12324.00
2018-05-17T07:22:49.518Z,14084.00
2018-05-17T07:23:49.544Z,13968.00
2018-05-17T07:25:42.473Z,12328.00
2018-05-17T07:26:42.482Z,12124.00
2018-05-17T07:28:35.410Z,11296.00
2018-05-17T07:29:35.419Z,10388.00
2018-05-17T07:31:28.342Z,8500.00
2018-05-17T07:32:28.347Z,9168.00
2018-05-17T07:34:21.279Z,12472.00
2018-05-17T07:35:21.283Z,15480.00
2018-05-17T07:37:14.691Z,16196.00
2018-05-17T07:38:14.716Z,15972.00
2018-05-17T07:40:07.644Z,13580.00
2018-05-17T07:41:07.649Z,14068.00
2018-05-17T07:43:00.559Z,16440.00
2018-05-17T07:44:00.589Z,16812.00
2018-05-17T07:45:53.514Z,16020.00
2018-05-17T07:46:53.519Z,15460.00
2018-05-17T07:48:46.450Z,14424.00
2018-05-17T07:49:46.460Z,15008.00
2018-05-17T07:51:39.368Z,14152.00
2018-05-17T07:52:39.397Z,13172.00
2018-05-17T07:54:32.429Z,12548.00
2018-05-17T07:55:32.446Z,12200.00
2018-05-17T07:57:25.364Z,10880.00
2018-05-17T07:58:25.385Z,11236.00
2018-05-17T08:00:18.337Z,15344.00
2018-05-17T08:01:18.349Z,16624.00
2018-05-17T08:03:11.271Z,18688.00
2018-05-17T08:04:11.295Z,18112.00
2018-05-17T08:06:04.755Z,16768.00
2018-05-17T08:07:04.761Z,16008.00
2018-05-17T08:08:57.709Z,13460.00
2018-05-17T08:09:57.715Z,12592.00
2018-05-17T08:11:50.647Z,11688.00
2018-05-17T08:12:50.672Z,10536.00
2018-05-17T08:14:43.619Z,8000.00
2018-05-17T08:15:43.626Z,7236.00
2018-05-17T08:17:36.553Z,7268.00
2018-05-17T08:18:36.577Z,8580.00
2018-05-17T08:20:29.528Z,14748.00
2018-05-17T08:21:29.529Z,18304.00
2018-05-17T08:23:22.463Z,17184.00
2018-05-17T08:24:22.486Z,15332.00
2018-05-17T08:26:15.433Z,15220.00
2018-05-17T08:27:15.440Z,14960.00
2018-05-17T08:29:08.388Z,12212.00
2018-05-17T08:30:08.393Z,10108.00
2018-05-17T08:32:01.331Z,9292.00
2018-05-17T08:33:01.348Z,8856.00
2018-05-17T08:34:55.833Z,7604.00
2018-05-17T08:35:55.836Z,7608.00
2018-05-17T08:37:48.767Z,10264.00
2018-05-17T08:38:48.792Z,10796.00
2018-05-17T08:40:41.745Z,14532.00
2018-05-17T08:41:41.745Z,17728.00
2018-05-17T08:43:34.676Z,17376.00
2018-05-17T08:44:34.699Z,16628.00
2018-05-17T08:46:28.160Z,14996.00
2018-05-17T08:47:28.166Z,14132.00
2018-05-17T08:49:21.114Z,12112.00
2018-05-17T08:50:21.121Z,11884.00
2018-05-17T08:52:14.049Z,15200.00
2018-05-17T08:53:14.074Z,17920.00
2018-05-17T08:55:07.535Z,17760.00
2018-05-17T08:56:07.540Z,17728.00
2018-05-17T08:58:00.469Z,17664.00
2018-05-17T08:59:00.495Z,16480.00
2018-05-17T09:00:53.444Z,14612.00
2018-05-17T09:01:53.451Z,14152.00
2018-05-17T09:03:46.380Z,13356.00
2018-05-17T09:04:46.405Z,13620.00
2018-05-17T09:06:39.428Z,13048.00
2018-05-17T09:07:39.358Z,12632.00
2018-05-17T09:09:32.306Z,12704.00
2018-05-17T09:10:32.313Z,13284.00
2018-05-17T09:12:25.240Z,13632.00
2018-05-17T09:13:25.288Z,13628.00
2018-05-17T09:15:18.212Z,13536.00
2018-05-17T09:16:18.220Z,12944.00
2018-05-17T09:18:11.149Z,12488.00
2018-05-17T09:19:11.173Z,10084.00
2018-05-17T09:21:04.121Z,10600.00
2018-05-17T09:22:04.134Z,12008.00
2018-05-17T09:23:57.055Z,14460.00
2018-05-17T09:24:57.079Z,15592.00
2018-05-17T09:26:50.028Z,15140.00
2018-05-17T09:27:50.036Z,15980.00
2018-05-17T09:29:42.983Z,14432.00
2018-05-17T09:30:42.991Z,13732.00
2018-05-17T09:32:35.929Z,12816.00
2018-05-17T09:33:35.952Z,13416.00
2018-05-17T09:35:28.996Z,14404.00
2018-05-17T09:36:29.002Z,14280.00
2018-05-17T09:38:21.928Z,10548.00
2018-05-17T09:39:21.961Z,9388.00
2018-05-17T09:41:14.909Z,8968.00
2018-05-17T09:42:14.911Z,8120.00
2018-05-17T09:44:07.839Z,7740.00
2018-05-17T09:45:07.865Z,7352.00
2018-05-17T09:47:00.799Z,7912.00
2018-05-17T09:48:00.808Z,8216.00
2018-05-17T09:49:53.747Z,8316.00
2018-05-17T09:50:53.755Z,7496.00
2018-05-17T09:52:48.158Z,8496.00
2018-05-17T09:53:48.183Z,9744.00
2018-05-17T09:55:41.615Z,9512.00
2018-05-17T09:56:41.618Z,7816.00
2018-05-17T09:58:34.536Z,6316.00
2018-05-17T09:59:34.566Z,6084.00
2018-05-17T10:01:27.496Z,7648.00
2018-05-17T10:02:27.502Z,10048.00
2018-05-17T10:04:20.910Z,9128.00
2018-05-17T10:05:20.933Z,7984.00
2018-05-17T10:07:13.864Z,5708.00
2018-05-17T10:08:13.866Z,5528.00
2018-05-17T10:10:06.801Z,4988.00
2018-05-17T10:11:06.809Z,4972.00
2018-05-17T10:12:59.719Z,4836.00
2018-05-17T10:13:59.738Z,4712.00
2018-05-17T10:15:53.163Z,4744.00
2018-05-17T10:16:53.169Z,4684.00
2018-05-17T10:18:46.083Z,4728.00
2018-05-17T10:19:46.111Z,4564.00
2018-05-17T10:21:39.035Z,4488.00
2018-05-17T10:22:39.046Z,4576.00
2018-05-17T10:24:31.957Z,4336.00
2018-05-17T10:25:31.983Z,4596.00
2018-05-17T10:27:24.913Z,4428.00
2018-05-17T10:28:24.919Z,4296.00
2018-05-17T10:30:17.846Z,4536.00
2018-05-17T10:31:17.850Z,4644.00
2018-05-17T10:33:10.763Z,5128.00
2018-05-17T10:34:10.791Z,5352.00
2018-05-17T10:36:03.716Z,6516.00
2018-05-17T10:37:03.718Z,7932.00
2018-05-17T10:38:56.629Z,9648.00
2018-05-17T10:39:56.653Z,9980.00
2018-05-17T10:41:49.585Z,10084.00
2018-05-17T10:42:49.595Z,9652.00
2018-05-17T10:44:42.505Z,7308.00
2018-05-17T10:45:42.528Z,6812.00
2018-05-17T10:47:35.459Z,6916.00
2018-05-17T10:48:35.472Z,7392.00
2018-05-17T10:50:28.393Z,6732.00
2018-05-17T10:51:28.398Z,6692.00
2018-05-17T10:53:21.309Z,5880.00
2018-05-17T10:54:21.340Z,5412.00
2018-05-17T10:56:14.268Z,5008.00
2018-05-17T10:57:14.277Z,4796.00
2018-05-17T10:59:07.187Z,4508.00
2018-05-17T11:00:07.222Z,4460.00
2018-05-17T11:02:00.143Z,4360.00
2018-05-17T11:03:00.152Z,4376.00
2018-05-17T11:04:53.059Z,4548.00
2018-05-17T11:05:53.081Z,4328.00
2018-05-17T11:07:46.014Z,4444.00
2018-05-17T11:08:46.020Z,4564.00
2018-05-17T11:10:38.950Z,4732.00
2018-05-17T11:11:38.954Z,4648.00
2018-05-17T11:13:31.870Z,4196.00
2018-05-17T11:14:31.896Z,3996.00
2018-05-17T11:16:24.827Z,3880.00
2018-05-17T11:17:24.836Z,3880.00
2018-05-17T11:19:17.743Z,3860.00
2018-05-17T11:20:17.773Z,3872.00
2018-05-17T11:22:10.697Z,3928.00
2018-05-17T11:23:10.703Z,3980.00
2018-05-17T11:25:04.618Z,4184.00
2018-05-17T11:26:04.633Z,4260.00
2018-05-17T11:27:57.567Z,5180.00
2018-05-17T11:28:57.575Z,5672.00
2018-05-17T11:30:51.016Z,4912.00
2018-05-17T11:31:58.640Z,4884.00
2018-05-17T11:33:44.425Z,5156.00
2018-05-17T11:34:44.448Z,4824.00
2018-05-17T11:36:37.381Z,4480.00
2018-05-17T11:37:37.391Z,3936.00
2018-05-17T11:39:30.304Z,4044.00
2018-05-17T11:40:30.328Z,3888.00
2018-05-17T11:42:23.256Z,3736.00
2018-05-17T11:43:23.267Z,3708.00
2018-05-17T11:45:16.172Z,3608.00
2018-05-17T11:46:16.202Z,3612.00
2018-05-17T11:48:09.131Z,3616.00
2018-05-17T11:49:09.141Z,3624.00
2018-05-17T11:51:02.558Z,3688.00
2018-05-17T11:52:02.565Z,3704.00
2018-05-17T11:53:55.975Z,3732.00
2018-05-17T11:54:55.998Z,3744.00
2018-05-17T11:56:48.931Z,3724.00
2018-05-17T11:57:48.937Z,3720.00
2018-05-17T11:59:41.849Z,4032.00
2018-05-17T12:00:41.873Z,3896.00
2018-05-17T12:02:34.825Z,3660.00
2018-05-17T12:03:34.806Z,3540.00
2018-05-17T12:05:27.722Z,3488.00
2018-05-17T12:06:27.749Z,3496.00
2018-05-17T12:08:21.187Z,3500.00
2018-05-17T12:09:21.185Z,3492.00
2018-05-17T12:11:14.125Z,3500.00
2018-05-17T12:12:14.125Z,3524.00
2018-05-17T12:14:07.034Z,3572.00
2018-05-17T12:15:07.060Z,3580.00
2018-05-17T12:16:59.988Z,3552.00
2018-05-17T12:17:59.992Z,3520.00
2018-05-17T12:19:52.904Z,3508.00
2018-05-17T12:20:52.985Z,3320.00
2018-05-17T12:22:45.861Z,3512.00
2018-05-17T12:23:45.869Z,3520.00
2018-05-17T12:25:38.777Z,3580.00
2018-05-17T12:26:38.805Z,3604.00
2018-05-17T12:28:31.733Z,3672.00
2018-05-17T12:29:31.742Z,3876.00
2018-05-17T12:31:24.672Z,3928.00
2018-05-17T12:32:24.678Z,3840.00
2018-05-17T12:34:18.081Z,3852.00
2018-05-17T12:35:18.104Z,4104.00
2018-05-17T12:37:11.110Z,4488.00
2018-05-17T12:38:11.047Z,4420.00
2018-05-17T12:40:03.956Z,4124.00
2018-05-17T12:41:03.979Z,4364.00
2018-05-17T12:42:56.912Z,4292.00
2018-05-17T12:43:56.921Z,4240.00
2018-05-17T12:45:49.829Z,3860.00
2018-05-17T12:46:49.860Z,3928.00
2018-05-17T12:48:43.280Z,3952.00
2018-05-17T12:49:43.286Z,4088.00
2018-05-17T12:51:36.219Z,5048.00
2018-05-17T12:52:36.230Z,4816.00
2018-05-17T12:54:29.146Z,3920.00
2018-05-17T12:55:29.169Z,3900.00
2018-05-17T12:57:22.101Z,3784.00
2018-05-17T12:58:22.109Z,3820.00
2018-05-17T13:00:15.019Z,3912.00
2018-05-17T13:01:15.049Z,4544.00
2018-05-17T13:03:07.978Z,4936.00
2018-05-17T13:04:07.986Z,5228.00
2018-05-17T13:06:00.896Z,6556.00
2018-05-17T13:07:00.934Z,7744.00
2018-05-17T13:08:53.853Z,8116.00
2018-05-17T13:09:53.870Z,6680.00
2018-05-17T13:11:47.285Z,4840.00
2018-05-17T13:12:47.293Z,4956.00
2018-05-17T13:14:40.209Z,4984.00
2018-05-17T13:15:40.236Z,5444.00
2018-05-17T13:17:33.175Z,6452.00
2018-05-17T13:18:33.190Z,6752.00
2018-05-17T13:20:26.091Z,5100.00
2018-05-17T13:21:26.120Z,4176.00
2018-05-17T13:23:19.052Z,3724.00
2018-05-17T13:24:19.060Z,3720.00
2018-05-17T13:26:11.971Z,3768.00
2018-05-17T13:27:12.000Z,3808.00
2018-05-17T13:29:04.929Z,3832.00
2018-05-17T13:30:04.940Z,3860.00
2018-05-17T13:31:57.865Z,3912.00
2018-05-17T13:32:57.877Z,4024.00
2018-05-17T13:34:50.789Z,4112.00
2018-05-17T13:35:50.815Z,4076.00
2018-05-17T13:37:43.746Z,3980.00
2018-05-17T13:38:43.756Z,3868.00
2018-05-17T13:40:36.667Z,3888.00
2018-05-17T13:41:36.736Z,3792.00
2018-05-17T13:43:29.706Z,3872.00
2018-05-17T13:44:29.713Z,3916.00
2018-05-17T13:46:23.125Z,4060.00
2018-05-17T13:47:23.145Z,4120.00
2018-05-17T13:49:16.574Z,4020.00
2018-05-17T13:50:16.580Z,4120.00
2018-05-17T13:52:09.593Z,4428.00
2018-05-17T13:53:09.597Z,4300.00
2018-05-17T13:55:02.525Z,4060.00
2018-05-17T13:56:02.551Z,4032.00
2018-05-17T13:57:56.022Z,4152.00
2018-05-17T13:58:56.102Z,4368.00
2018-05-17T14:00:49.047Z,4740.00
2018-05-17T14:01:49.076Z,4976.00
2018-05-17T14:03:42.022Z,5296.00
2018-05-17T14:04:42.028Z,5240.00
2018-05-17T14:06:35.980Z,4564.00
2018-05-17T14:07:36.006Z,4332.00
2018-05-17T14:09:28.954Z,4244.00
2018-05-17T14:10:28.960Z,4332.00
2018-05-17T14:12:21.962Z,4160.00
2018-05-17T14:13:21.905Z,4360.00
2018-05-17T14:15:15.383Z,4372.00
2018-05-17T14:16:15.336Z,4452.00
2018-05-17T14:18:08.326Z,4560.00
2018-05-17T14:19:08.333Z,4844.00
2018-05-17T14:21:01.264Z,6536.00
2018-05-17T14:22:01.286Z,7860.00
2018-05-17T14:23:54.235Z,9028.00
2018-05-17T14:24:54.241Z,9224.00
2018-05-17T14:26:47.171Z,8404.00
2018-05-17T14:27:47.196Z,7660.00
2018-05-17T14:29:40.145Z,6508.00
2018-05-17T14:30:40.151Z,5980.00
2018-05-17T14:32:33.095Z,5828.00
2018-05-17T14:33:33.096Z,5940.00
2018-05-17T14:35:26.009Z,5584.00
2018-05-17T14:36:26.040Z,5252.00
2018-05-17T14:38:18.972Z,4652.00
2018-05-17T14:39:18.979Z,4400.00
2018-05-17T14:41:11.905Z,4484.00
2018-05-17T14:42:11.926Z,4544.00
2018-05-17T14:44:04.866Z,4544.00
2018-05-17T14:45:04.871Z,4804.00
2018-05-17T14:46:57.787Z,5472.00
2018-05-17T14:47:57.817Z,5684.00
2018-05-17T14:49:50.755Z,5384.00
2018-05-17T14:50:50.759Z,5144.00
2018-05-17T14:52:43.692Z,4900.00
2018-05-17T14:53:43.703Z,4876.00
2018-05-17T14:55:36.619Z,4880.00
2018-05-17T14:56:36.645Z,4756.00
2018-05-17T14:58:29.583Z,4596.00
2018-05-17T14:59:29.590Z,4544.00
2018-05-17T15:01:22.513Z,4248.00
2018-05-17T15:02:22.534Z,4640.00
2018-05-17T15:04:15.469Z,5844.00
2018-05-17T15:05:15.475Z,6388.00
2018-05-17T15:07:08.465Z,6764.00
2018-05-17T15:08:08.452Z,6940.00
2018-05-17T15:10:01.401Z,6528.00
2018-05-17T15:11:01.411Z,6260.00
2018-05-17T15:12:54.354Z,6824.00
2018-05-17T15:13:54.446Z,7444.00
2018-05-17T15:15:47.289Z,8104.00
2018-05-17T15:16:47.316Z,7700.00
2018-05-17T15:18:40.260Z,6860.00
2018-05-17T15:19:40.267Z,6816.00
2018-05-17T15:21:33.196Z,7508.00
2018-05-17T15:22:33.222Z,7836.00
2018-05-17T15:24:26.175Z,7624.00
2018-05-17T15:25:26.180Z,7424.00
2018-05-17T15:27:19.183Z,8056.00
2018-05-17T15:28:19.137Z,8400.00
2018-05-17T15:30:12.079Z,7132.00
2018-05-17T15:31:12.091Z,6772.00
2018-05-17T15:33:05.003Z,7524.00
2018-05-17T15:34:05.033Z,7832.00
2018-05-17T15:35:57.986Z,6856.00
2018-05-17T15:36:57.999Z,6364.00
2018-05-17T15:38:50.921Z,6256.00
2018-05-17T15:39:50.951Z,6280.00
2018-05-17T15:41:43.912Z,6172.00
2018-05-17T15:42:43.900Z,6224.00
2018-05-17T15:44:36.832Z,5772.00
2018-05-17T15:45:36.857Z,5296.00
2018-05-17T15:47:29.802Z,5200.00
2018-05-17T15:48:29.811Z,5252.00
2018-05-17T15:50:22.757Z,5512.00
2018-05-17T15:51:22.763Z,5800.00
2018-05-17T15:53:15.691Z,6948.00
2018-05-17T15:54:15.719Z,7144.00
2018-05-17T15:56:09.178Z,7720.00
2018-05-17T15:57:09.182Z,8216.00
2018-05-17T15:59:02.111Z,7888.00
2018-05-17T16:00:02.137Z,8024.00
2018-05-17T16:01:55.087Z,9472.00
2018-05-17T16:02:55.092Z,9204.00
2018-05-17T16:04:48.020Z,7216.00
2018-05-17T16:05:48.048Z,6060.00
2018-05-17T16:07:41.505Z,4824.00
2018-05-17T16:08:41.512Z,4576.00
2018-05-17T16:10:34.439Z,4272.00
2018-05-17T16:11:34.465Z,4356.00
2018-05-17T16:13:28.437Z,4232.00
2018-05-17T16:14:28.445Z,4272.00
2018-05-17T16:16:21.391Z,4628.00
2018-05-17T16:17:21.397Z,4956.00
2018-05-17T16:19:14.331Z,4684.00
2018-05-17T16:20:14.351Z,4696.00
2018-05-17T16:22:07.299Z,4580.00
2018-05-17T16:23:07.306Z,4524.00
2018-05-17T16:25:00.236Z,4948.00
2018-05-17T16:26:00.260Z,5648.00
2018-05-17T16:27:53.211Z,6520.00
2018-05-17T16:28:53.213Z,6460.00
2018-05-17T16:30:46.663Z,5204.00
2018-05-17T16:31:46.687Z,5192.00
2018-05-17T16:33:39.619Z,5380.00
2018-05-17T16:34:39.624Z,5476.00
2018-05-17T16:36:32.563Z,5536.00
2018-05-17T16:37:32.588Z,5540.00
2018-05-17T16:39:25.538Z,5612.00
2018-05-17T16:40:25.543Z,5868.00
2018-05-17T16:42:18.490Z,6312.00
2018-05-17T16:43:18.494Z,6440.00
2018-05-17T16:45:11.425Z,7124.00
2018-05-17T16:46:11.448Z,7284.00
2018-05-17T16:48:04.401Z,6984.00
2018-05-17T16:49:04.404Z,6728.00
2018-05-17T16:50:57.332Z,6208.00
2018-05-17T16:51:57.360Z,6012.00
2018-05-17T16:53:50.308Z,6092.00
2018-05-17T16:54:50.314Z,6268.00
2018-05-17T16:56:43.243Z,6056.00
2018-05-17T16:57:43.267Z,6008.00
2018-05-17T16:59:36.218Z,5588.00
2018-05-17T17:00:36.257Z,5428.00
2018-05-17T17:02:29.152Z,4900.00
2018-05-17T17:03:29.173Z,4748.00
2018-05-17T17:05:22.123Z,4352.00
2018-05-17T17:06:22.128Z,4160.00
2018-05-17T17:08:15.078Z,3636.00
2018-05-17T17:09:15.081Z,3464.00
2018-05-17T17:11:08.013Z,3052.00
2018-05-17T17:12:08.037Z,2784.00
2018-05-17T17:14:00.989Z,2420.00
2018-05-17T17:15:00.995Z,2300.00
2018-05-17T17:16:54.432Z,2220.00
2018-05-17T17:17:54.509Z,2272.00
2018-05-17T17:19:50.631Z,2468.00
2018-05-17T17:20:50.634Z,2468.00
2018-05-17T17:22:43.616Z,2184.00
2018-05-17T17:23:43.641Z,2012.00
2018-05-17T17:25:36.589Z,1812.00
2018-05-17T17:26:36.595Z,1772.00
2018-05-17T17:28:29.553Z,1936.00
2018-05-17T17:29:29.550Z,1972.00
2018-05-17T17:31:22.479Z,1780.00
2018-05-17T17:32:22.501Z,1668.00
2018-05-17T17:34:15.981Z,1508.00
2018-05-17T17:35:15.974Z,1412.00
2018-05-17T17:37:08.900Z,1368.00
2018-05-17T17:38:08.928Z,1380.00
2018-05-17T17:40:02.384Z,1356.00
2018-05-17T17:41:02.392Z,1340.00
2018-05-17T17:42:56.853Z,1324.00